Time,TemperatureF,DewpointF,PressureIn,WindDirection,WindDirectionDegrees,WindSpeedMPH,WindSpeedGustMPH,Humidity,HourlyPrecipIn,Conditions,Clouds,dailyrainin,SolarRadiationWatts/m^2,SoftwareType,DateUTC
2013-11-29 00:01:00,33.0,14.0,-100.00,North,2,3.0,5.0,45,-99.99,,,0.00,0.000000,,2013-11-29 07:01:00,
2013-11-29 00:42:00,32.0,15.0,-100.00,North,353,5.0,6.0,49,0.00,,,0.00,0.000000,,2013-11-29 07:42:00,
2013-11-29 00:52:00,32.0,15.0,-100.00,North,353,5.0,6.0,49,0.00,,,0.00,0.000000,,2013-11-29 07:52:00,
2013-11-29 01:01:00,32.0,15.0,-100.00,North,353,5.0,6.0,49,0.00,,,0.00,0.000000,,2013-11-29 08:01:00,
2013-11-29 01:42:00,33.0,15.0,-100.00,North,357,3.0,7.0,47,0.00,,,0.00,0.000000,,2013-11-29 08:42:00,
2013-11-29 01:53:00,33.0,15.0,-100.00,North,357,3.0,7.0,47,0.00,,,0.00,0.000000,,2013-11-29 08:53:00,
2013-11-29 02:02:00,33.0,15.0,-100.00,North,357,3.0,7.0,47,0.00,,,0.00,0.000000,,2013-11-29 09:02:00,
2013-11-29 02:43:00,32.0,15.0,-100.00,NNW,340,5.0,11.0,49,-99.99,,,0.00,0.000000,,2013-11-29 09:43:00,
2013-11-29 02:52:00,32.0,15.0,-100.00,NNW,340,5.0,11.0,49,-99.99,,,0.00,0.000000,,2013-11-29 09:52:00,
2013-11-29 03:03:00,32.0,15.0,-100.00,NNW,340,5.0,11.0,49,-99.99,,,0.00,0.000000,,2013-11-29 10:03:00,
2013-11-29 04:42:00,31.0,15.0,-100.00,NNW,339,2.0,6.0,50,-99.99,,,0.00,0.000000,,2013-11-29 11:42:00,
2013-11-29 05:42:00,31.0,16.0,-100.00,NNW,341,5.0,6.0,53,-99.99,,,0.00,0.000000,,2013-11-29 12:42:00,
2013-11-29 07:52:00,31.0,14.0,-100.00,SSW,199,2.0,5.0,49,-99.99,,,0.00,0.000000,,2013-11-29 14:52:00,
2013-11-29 08:02:00,31.0,14.0,-100.00,SSW,199,2.0,5.0,49,-99.99,,,0.00,0.000000,,2013-11-29 15:02:00,
2013-11-29 11:52:00,41.0,20.0,-100.00,SSW,201,6.0,10.0,42,-99.99,,,0.00,388.000000,,2013-11-29 18:52:00,
2013-11-29 12:01:00,41.0,20.0,-100.00,SSW,201,6.0,10.0,42,-99.99,,,0.00,388.000000,,2013-11-29 19:01:00,
2013-11-29 12:42:00,42.0,19.0,-100.00,SSW,205,9.0,14.0,40,0.00,,,0.00,414.000000,,2013-11-29 19:42:00,
2013-11-29 13:42:00,43.0,19.0,-100.00,SSW,206,11.0,19.0,37,-99.99,,,0.00,418.000000,,2013-11-29 20:42:00,
2013-11-29 13:52:00,43.0,19.0,-100.00,SSW,206,11.0,19.0,37,-99.99,,,0.00,418.000000,,2013-11-29 20:52:00,
2013-11-29 14:02:00,43.0,19.0,-100.00,SSW,206,11.0,19.0,37,-99.99,,,0.00,418.000000,,2013-11-29 21:02:00,
2013-11-29 14:43:00,44.0,18.0,-100.00,SW,218,11.0,21.0,35,0.00,,,0.00,462.000000,,2013-11-29 21:43:00,
2013-11-29 14:53:00,44.0,18.0,-100.00,SW,218,11.0,21.0,35,0.00,,,0.00,462.000000,,2013-11-29 21:53:00,
2013-11-29 15:03:00,44.0,18.0,-100.00,SW,218,11.0,21.0,35,0.00,,,0.00,462.000000,,2013-11-29 22:03:00,
2013-11-29 15:42:00,44.0,18.0,-100.00,SW,233,9.0,20.0,35,0.00,,,0.00,371.000000,,2013-11-29 22:42:00,
2013-11-29 15:53:00,44.0,18.0,-100.00,SW,233,9.0,20.0,35,0.00,,,0.00,371.000000,,2013-11-29 22:53:00,
2013-11-29 16:02:00,44.0,18.0,-100.00,SW,233,9.0,20.0,35,0.00,,,0.00,371.000000,,2013-11-29 23:02:00,
2013-11-29 16:42:00,41.0,17.0,-100.00,WSW,238,9.0,17.0,38,0.00,,,0.00,187.000000,,2013-11-29 23:42:00,
2013-11-29 16:52:00,41.0,17.0,-100.00,WSW,238,9.0,17.0,38,0.00,,,0.00,187.000000,,2013-11-29 23:52:00,
2013-11-29 17:01:00,41.0,17.0,-100.00,WSW,238,9.0,17.0,38,0.00,,,0.00,187.000000,,2013-11-30 00:01:00,
2013-11-29 17:42:00,38.0,17.0,-100.00,West,265,10.0,14.0,42,0.00,,,0.00,28.000000,,2013-11-30 00:42:00,
2013-11-29 17:52:00,38.0,17.0,-100.00,West,265,10.0,14.0,42,0.00,,,0.00,28.000000,,2013-11-30 00:52:00,
2013-11-29 18:01:00,38.0,17.0,-100.00,West,265,10.0,14.0,42,0.00,,,0.00,28.000000,,2013-11-30 01:01:00,
2013-11-29 18:42:00,37.0,17.0,-100.00,WSW,237,7.0,15.0,44,0.00,,,0.00,0.000000,,2013-11-30 01:42:00,
2013-11-29 18:52:00,37.0,17.0,-100.00,WSW,237,7.0,15.0,44,0.00,,,0.00,0.000000,,2013-11-30 01:52:00,
2013-11-29 19:01:00,37.0,17.0,-100.00,WSW,237,7.0,15.0,44,0.00,,,0.00,0.000000,,2013-11-30 02:01:00,
2013-11-29 19:42:00,36.0,18.0,-100.00,SW,217,6.0,11.0,47,0.00,,,0.00,0.000000,,2013-11-30 02:42:00,
2013-11-29 19:52:00,36.0,18.0,-100.00,SW,217,6.0,11.0,47,0.00,,,0.00,0.000000,,2013-11-30 02:52:00,
2013-11-29 20:02:00,36.0,18.0,-100.00,SW,217,6.0,11.0,47,0.00,,,0.00,0.000000,,2013-11-30 03:02:00,
2013-11-29 20:43:00,36.0,18.0,-100.00,WSW,246,8.0,11.0,48,0.00,,,0.00,0.000000,,2013-11-30 03:43:00,
2013-11-29 20:53:00,36.0,18.0,-100.00,WSW,246,8.0,11.0,48,0.00,,,0.00,0.000000,,2013-11-30 03:53:00,
2013-11-29 21:03:00,36.0,18.0,-100.00,WSW,246,8.0,11.0,48,0.00,,,0.00,0.000000,,2013-11-30 04:03:00,
2013-11-29 21:43:00,35.0,19.0,-100.00,West,279,8.0,12.0,52,0.00,,,0.00,0.000000,,2013-11-30 04:43:00,
2013-11-29 21:53:00,35.0,19.0,-100.00,West,279,8.0,12.0,52,0.00,,,0.00,0.000000,,2013-11-30 04:53:00,
2013-11-29 22:02:00,35.0,19.0,-100.00,West,279,8.0,12.0,52,0.00,,,0.00,0.000000,,2013-11-30 05:02:00,
2013-11-29 22:43:00,35.0,20.0,-100.00,WSW,254,6.0,11.0,55,0.00,,,0.00,0.000000,,2013-11-30 05:43:00,
2013-11-29 22:53:00,35.0,20.0,-100.00,WSW,254,6.0,11.0,55,0.00,,,0.00,0.000000,,2013-11-30 05:53:00,
2013-11-29 23:02:00,35.0,20.0,-100.00,WSW,254,6.0,11.0,55,0.00,,,0.00,0.000000,,2013-11-30 06:02:00,
2013-11-29 23:42:00,34.0,20.0,-100.00,WSW,258,8.0,13.0,57,0.00,,,0.00,0.000000,,2013-11-30 06:42:00,
2013-11-29 23:52:00,34.0,20.0,-100.00,WSW,258,8.0,13.0,57,0.00,,,0.00,0.000000,,2013-11-30 06:52:00,